Time;durP1;ratioP1;P1;durP2;ratioP2;P2;SDS_P1;SDS_P2;PMS_P1;PMS_P2;Temp;Humidity;BMP_temperature;BMP_pressure;BME280_temperature;BME280_humidity;BME280_pressure;Samples;Min_cycle;Max_cycle;Signal;HPM_P1;HPM_P2
2023/04/26 00:02:11;;;;;;;;;;;;;;;;;;5037792;28;20397;-62
2023/04/26 00:04:37;;;;;;;;;;;;;;;;;;5054305;28;19924;-63
2023/04/26 00:07:03;;;;;;;;;;;;;;;;;;5040767;28;19955;-61
2023/04/26 00:09:29;;;;;;;;;;;;;;;;;;5053174;28;19924;-62
2023/04/26 00:11:55;;;;;;;;;;;;;;;;;;5036419;28;19921;-63
2023/04/26 00:14:21;;;;;;;;;;;;;;;;;;5035117;28;20357;-62
2023/04/26 00:16:47;;;;;;;;;;;;;;;;;;5030354;28;19936;-62
2023/04/26 00:19:14;;;;;;;;;;;;;;;;;;5052094;28;20023;-62
2023/04/26 00:21:40;;;;;;;;;;;;;;;;;;5038807;28;19921;-62
2023/04/26 00:24:06;;;;;;;;;;;;;;;;;;5052340;28;19975;-62
2023/04/26 00:26:33;;;;;;;;;;;;;;;;;;5056226;28;20021;-62
2023/04/26 00:28:59;;;;;;;;;;;;;;;;;;5069079;28;19944;-62
2023/04/26 00:31:25;;;;;;;;;;;;;;;;;;5064287;28;20005;-63
2023/04/26 00:33:51;;;;;;;;;;;;;;;;;;5051492;28;19932;-63
2023/04/26 00:36:18;;;;;;;;;;;;;;;;;;5039985;28;19925;-62
2023/04/26 00:38:44;;;;;;;;;;;;;;;;;;5035572;28;20830;-62
2023/04/26 00:41:10;;;;;;;;;;;;;;;;;;5055649;28;19951;-62
2023/04/26 00:43:36;;;;;;;;;;;;;;;;;;5053116;28;20460;-61
2023/04/26 00:46:02;;;;;;;;;;;;;;;;;;5034520;28;20000;-62
2023/04/26 00:48:28;;;;;;;;;;;;;;;;;;5037847;28;19932;-62
2023/04/26 00:50:54;;;;;;;;;;;;;;;;;;5050572;28;19920;-62
2023/04/26 00:53:20;;;;;;;;;;;;;;;;;;5050259;28;19921;-63
2023/04/26 00:55:46;;;;;;;;;;;;;;;;;;5053159;28;19928;-63
2023/04/26 00:58:12;;;;;;;;;;;;;;;;;;5035722;28;20023;-62
2023/04/26 01:00:38;;;;;;;;;;;;;;;;;;5035184;28;19925;-63
2023/04/26 01:03:04;;;;;;;;;;;;;;;;;;5034035;28;19920;-62
2023/04/26 01:05:30;;;;;;;;;;;;;;;;;;5049964;28;19983;-62
2023/04/26 01:07:56;;;;;;;;;;;;;;;;;;5051144;28;19951;-63
2023/04/26 01:10:22;;;;;;;;;;;;;;;;;;5052639;28;19943;-63
2023/04/26 01:12:48;;;;;;;;;;;;;;;;;;5053483;28;19929;-62
2023/04/26 01:15:14;;;;;;;;;;;;;;;;;;5048837;28;19925;-63
2023/04/26 01:17:40;;;;;;;;;;;;;;;;;;5047095;28;19975;-62
2023/04/26 01:20:08;;;;;;;;;;;;;;;;;;5052377;28;19924;-63
2023/04/26 01:22:35;;;;;;;;;;;;;;;;;;5036743;28;19921;-62
2023/04/26 01:25:01;;;;;;;;;;;;;;;;;;5055727;28;19973;-63
2023/04/26 01:27:27;;;;;;;;;;;;;;;;;;5054499;28;19925;-63
2023/04/26 01:29:52;;;;;;;;;;;;;;;;;;5062431;28;19931;-63
2023/04/26 01:32:18;;;;;;;;;;;;;;;;;;5049069;28;19921;-62
2023/04/26 01:34:45;;;;;;;;;;;;;;;;;;5051328;28;21861;-63
2023/04/26 01:37:11;;;;;;;;;;;;;;;;;;5050568;28;20007;-63
2023/04/26 01:39:37;;;;;;;;;;;;;;;;;;5049882;28;20602;-63
2023/04/26 01:42:03;;;;;;;;;;;;;;;;;;5051698;28;20278;-63
2023/04/26 01:44:29;;;;;;;;;;;;;;;;;;5048258;28;19920;-63
2023/04/26 01:46:55;;;;;;;;;;;;;;;;;;5050856;28;19921;-63
2023/04/26 01:49:21;;;;;;;;;;;;;;;;;;5052327;28;20374;-63
2023/04/26 01:51:47;;;;;;;;;;;;;;;;;;5044493;28;19998;-63
2023/04/26 01:54:13;;;;;;;;;;;;;;;;;;5052481;28;19931;-62
2023/04/26 01:56:39;;;;;;;;;;;;;;;;;;5050426;28;20617;-63
2023/04/26 01:59:05;;;;;;;;;;;;;;;;;;5033751;28;19929;-63
2023/04/26 02:01:31;;;;;;;;;;;;;;;;;;5052187;28;19970;-63
2023/04/26 02:03:57;;;;;;;;;;;;;;;;;;5053372;28;19924;-64
2023/04/26 02:06:23;;;;;;;;;;;;;;;;;;5034782;28;19936;-63
2023/04/26 02:08:49;;;;;;;;;;;;;;;;;;5030662;28;20326;-63
2023/04/26 02:11:14;;;;;;;;;;;;;;;;;;5027083;28;20262;-63
2023/04/26 02:13:41;;;;;;;;;;;;;;;;;;5030350;28;19921;-63
2023/04/26 02:16:06;;;;;;;;;;;;;;;;;;5009504;28;19929;-63
2023/04/26 02:18:33;;;;;;;;;;;;;;;;;;5028967;28;19983;-63
2023/04/26 02:20:59;;;;;;;;;;;;;;;;;;5033743;28;20459;-62
2023/04/26 02:23:25;;;;;;;;;;;;;;;;;;5021495;28;19932;-63
2023/04/26 02:25:51;;;;;;;;;;;;;;;;;;5020515;28;19925;-62
2023/04/26 02:28:16;;;;;;;;;;;;;;;;;;5009094;28;19928;-62
2023/04/26 02:30:43;;;;;;;;;;;;;;;;;;5037469;28;19928;-63
2023/04/26 02:33:09;;;;;;;;;;;;;;;;;;5023715;28;20023;-62
2023/04/26 02:35:36;;;;;;;;;;;;;;;;;;5027757;28;20013;-63
2023/04/26 02:38:02;;;;;;;;;;;;;;;;;;5022812;28;19921;-61
2023/04/26 02:40:29;;;;;;;;;;;;;;;;;;5022128;28;19980;-62
2023/04/26 02:42:54;;;;;;;;;;;;;;;;;;5008083;28;20012;-62
2023/04/26 02:45:20;;;;;;;;;;;;;;;;;;5028611;28;20004;-62
2023/04/26 02:47:46;;;;;;;;;;;;;;;;;;5028979;28;20368;-62
2023/04/26 02:50:12;;;;;;;;;;;;;;;;;;5015377;28;19951;-62
2023/04/26 02:52:38;;;;;;;;;;;;;;;;;;5038149;28;19941;-62
2023/04/26 02:55:04;;;;;;;;;;;;;;;;;;5025037;28;19925;-62
2023/04/26 02:57:30;;;;;;;;;;;;;;;;;;5026822;28;19933;-62
2023/04/26 02:59:56;;;;;;;;;;;;;;;;;;5031329;28;19925;-63
2023/04/26 03:02:22;;;;;;;;;;;;;;;;;;5020634;28;20411;-63
2023/04/26 03:04:48;;;;;;;;;;;;;;;;;;5023969;28;19932;-63
2023/04/26 03:07:14;;;;;;;;;;;;;;;;;;5043127;28;19982;-62
2023/04/26 03:09:39;;;;;;;;;;;;;;;;;;5042908;28;20055;-63
2023/04/26 03:12:05;;;;;;;;;;;;;;;;;;5039844;28;19973;-63
2023/04/26 03:14:32;;;;;;;;;;;;;;;;;;5037331;28;20309;-63
2023/04/26 03:16:58;;;;;;;;;;;;;;;;;;5026079;28;20540;-63
2023/04/26 03:19:24;;;;;;;;;;;;;;;;;;5031119;28;19956;-62
2023/04/26 03:21:50;;;;;;;;;;;;;;;;;;5043231;28;19939;-63
2023/04/26 03:24:16;;;;;;;;;;;;;;;;;;5039040;28;20301;-62
2023/04/26 03:26:42;;;;;;;;;;;;;;;;;;5046475;28;19921;-63
2023/04/26 03:29:08;;;;;;;;;;;;;;;;;;5027198;28;20311;-63
2023/04/26 03:31:34;;;;;;;;;;;;;;;;;;5039931;28;20014;-63
2023/04/26 03:34:00;;;;;;;;;;;;;;;;;;5039104;28;19924;-63
2023/04/26 03:36:27;;;;;;;;;;;;;;;;;;5031569;28;19936;-63
2023/04/26 03:38:53;;;;;;;;;;;;;;;;;;5028685;28;19956;-62
2023/04/26 03:41:19;;;;;;;;;;;;;;;;;;5021746;28;19960;-63
2023/04/26 03:43:45;;;;;;;;;;;;;;;;;;5041516;28;19927;-63
2023/04/26 03:46:11;;;;;;;;;;;;;;;;;;5052754;28;19962;-63
2023/04/26 03:48:37;;;;;;;;;;;;;;;;;;5042605;28;19931;-63
2023/04/26 03:51:03;;;;;;;;;;;;;;;;;;5021976;28;20285;-63
2023/04/26 03:53:28;;;;;;;;;;;;;;;;;;5028329;28;19921;-63
2023/04/26 03:55:55;;;;;;;;;;;;;;;;;;5035061;28;19932;-63
2023/04/26 03:58:21;;;;;;;;;;;;;;;;;;5046563;28;19967;-63
2023/04/26 04:00:47;;;;;;;;;;;;;;;;;;5048444;28;19928;-62
2023/04/26 04:03:13;;;;;;;;;;;;;;;;;;5053468;28;19956;-62
2023/04/26 04:05:38;;;;;;;;;;;;;;;;;;5038878;28;20298;-62
2023/04/26 04:08:04;;;;;;;;;;;;;;;;;;5013226;28;20256;-63
2023/04/26 04:10:30;;;;;;;;;;;;;;;;;;5032174;28;20004;-63
2023/04/26 04:12:56;;;;;;;;;;;;;;;;;;5032538;28;19929;-63
2023/04/26 04:15:22;;;;;;;;;;;;;;;;;;5023217;28;19936;-63
2023/04/26 04:17:48;;;;;;;;;;;;;;;;;;5014581;28;19961;-62
2023/04/26 04:20:14;;;;;;;;;;;;;;;;;;5032553;28;20345;-62
2023/04/26 04:22:40;;;;;;;;;;;;;;;;;;5015087;28;20015;-62
2023/04/26 04:25:06;;;;;;;;;;;;;;;;;;5016880;28;20007;-63
2023/04/26 04:27:32;;;;;;;;;;;;;;;;;;5036790;28;20015;-63
2023/04/26 04:29:58;;;;;;;;;;;;;;;;;;5030793;28;19960;-62
2023/04/26 04:32:24;;;;;;;;;;;;;;;;;;5017682;28;19952;-62
2023/04/26 04:34:50;;;;;;;;;;;;;;;;;;5032465;28;20278;-62
2023/04/26 04:37:17;;;;;;;;;;;;;;;;;;5035831;28;20027;-62
2023/04/26 04:39:42;;;;;;;;;;;;;;;;;;5019152;28;20325;-62
2023/04/26 04:42:09;;;;;;;;;;;;;;;;;;5037439;28;20008;-62
2023/04/26 04:44:35;;;;;;;;;;;;;;;;;;5031466;28;19925;-62
2023/04/26 04:47:01;;;;;;;;;;;;;;;;;;5013435;28;20000;-63
2023/04/26 04:49:27;;;;;;;;;;;;;;;;;;5016316;28;20011;-62
2023/04/26 04:51:53;;;;;;;;;;;;;;;;;;5031298;28;19925;-62
2023/04/26 04:54:19;;;;;;;;;;;;;;;;;;5031176;28;20016;-62
2023/04/26 04:56:45;;;;;;;;;;;;;;;;;;5034956;28;19921;-62
2023/04/26 04:59:11;;;;;;;;;;;;;;;;;;5019666;28;19975;-62
2023/04/26 05:01:37;;;;;;;;;;;;;;;;;;5033574;28;19948;-62
2023/04/26 05:04:03;;;;;;;;;;;;;;;;;;5042926;28;19932;-62
2023/04/26 05:06:30;;;;;;;;;;;;;;;;;;5032027;28;19932;-62
2023/04/26 05:08:56;;;;;;;;;;;;;;;;;;5054147;28;19929;-62
2023/04/26 05:11:22;;;;;;;;;;;;;;;;;;5052892;28;19921;-63
2023/04/26 05:13:48;;;;;;;;;;;;;;;;;;5034951;28;20393;-62
2023/04/26 05:16:14;;;;;;;;;;;;;;;;;;5027936;28;19921;-62
2023/04/26 05:18:40;;;;;;;;;;;;;;;;;;5047528;28;19928;-62
2023/04/26 05:21:06;;;;;;;;;;;;;;;;;;5038199;28;20149;-62
2023/04/26 05:23:33;;;;;;;;;;;;;;;;;;5052614;28;20067;-62
2023/04/26 05:25:59;;;;;;;;;;;;;;;;;;5063177;28;19999;-62
2023/04/26 05:28:25;;;;;;;;;;;;;;;;;;5064854;28;20055;-62
2023/04/26 05:30:51;;;;;;;;;;;;;;;;;;5029641;28;20388;-62
2023/04/26 05:33:16;;;;;;;;;;;;;;;;;;5033433;28;19924;-63
2023/04/26 05:35:42;;;;;;;;;;;;;;;;;;5060197;28;19931;-63
2023/04/26 05:38:08;;;;;;;;;;;;;;;;;;5050625;28;20286;-63
2023/04/26 05:40:34;;;;;;;;;;;;;;;;;;5035616;28;19931;-63
2023/04/26 05:43:00;;;;;;;;;;;;;;;;;;5068646;28;19947;-63
2023/04/26 05:45:26;;;;;;;;;;;;;;;;;;5052746;28;19924;-63
2023/04/26 05:47:52;;;;;;;;;;;;;;;;;;5043535;28;19929;-64
2023/04/26 05:50:18;;;;;;;;;;;;;;;;;;5051411;28;19928;-64
2023/04/26 05:52:44;;;;;;;;;;;;;;;;;;5049435;28;20398;-62
2023/04/26 05:55:10;;;;;;;;;;;;;;;;;;5072886;28;19951;-63
2023/04/26 05:57:36;;;;;;;;;;;;;;;;;;5054658;28;19927;-63
2023/04/26 06:00:02;;;;;;;;;;;;;;;;;;5055971;28;19925;-63
2023/04/26 06:02:27;;;;;;;;;;;;;;;;;;5055135;28;20293;-63
2023/04/26 06:04:53;;;;;;;;;;;;;;;;;;5050921;28;20028;-63
2023/04/26 06:07:19;;;;;;;;;;;;;;;;;;5048744;28;19925;-63
2023/04/26 06:09:45;;;;;;;;;;;;;;;;;;5035957;28;19925;-63
2023/04/26 06:12:11;;;;;;;;;;;;;;;;;;5027418;28;20496;-63
2023/04/26 06:14:37;;;;;;;;;;;;;;;;;;5052533;28;19924;-63
2023/04/26 06:17:03;;;;;;;;;;;;;;;;;;5052857;28;19921;-63
2023/04/26 06:19:29;;;;;;;;;;;;;;;;;;5054429;28;19932;-62
2023/04/26 06:21:55;;;;;;;;;;;;;;;;;;5051620;28;19971;-63
2023/04/26 06:24:21;;;;;;;;;;;;;;;;;;5051187;28;19927;-62
2023/04/26 06:26:47;;;;;;;;;;;;;;;;;;5050717;28;19921;-63
2023/04/26 06:29:13;;;;;;;;;;;;;;;;;;5052582;28;20554;-63
2023/04/26 06:31:39;;;;;;;;;;;;;;;;;;5031825;28;19927;-63
2023/04/26 06:34:05;;;;;;;;;;;;;;;;;;5021816;28;20006;-63
2023/04/26 06:36:31;;;;;;;;;;;;;;;;;;5052433;28;19921;-62
2023/04/26 06:38:57;;;;;;;;;;;;;;;;;;5032281;28;19932;-63
2023/04/26 06:41:23;;;;;;;;;;;;;;;;;;5050004;28;19925;-63
2023/04/26 06:43:49;;;;;;;;;;;;;;;;;;5050609;28;19920;-62
2023/04/26 06:46:15;;;;;;;;;;;;;;;;;;5051298;28;19928;-62
2023/04/26 06:48:41;;;;;;;;;;;;;;;;;;5046991;28;20372;-62
2023/04/26 06:51:07;;;;;;;;;;;;;;;;;;5043755;28;19925;-63
2023/04/26 06:53:33;;;;;;;;;;;;;;;;;;5046079;28;20438;-63
2023/04/26 06:55:59;;;;;;;;;;;;;;;;;;5028394;28;19946;-62
2023/04/26 06:58:25;;;;;;;;;;;;;;;;;;5052432;28;19920;-62
2023/04/26 07:00:51;;;;;;;;;;;;;;;;;;5028314;28;19925;-63
2023/04/26 07:03:17;;;;;;;;;;;;;;;;;;5045286;28;20023;-63
2023/04/26 07:05:43;;;;;;;;;;;;;;;;;;5042549;28;19925;-62
2023/04/26 07:08:08;;;;;;;;;;;;;;;;;;5029519;28;19971;-62
2023/04/26 07:10:34;;;;;;;;;;;;;;;;;;5035727;28;19921;-62
2023/04/26 07:13:00;;;;;;;;;;;;;;;;;;5049290;28;19925;-62
2023/04/26 07:15:26;;;;;;;;;;;;;;;;;;5049764;28;19929;-62
2023/04/26 07:17:52;;;;;;;;;;;;;;;;;;5053767;28;20344;-62
2023/04/26 07:20:19;;;;;;;;;;;;;;;;;;5086012;22;19943;-62
2023/04/26 07:22:45;;;;;;;;;;;;;;;;;;5108620;28;19972;-62
2023/04/26 07:25:11;;;;;;;;;;;;;;;;;;5103482;28;19920;-61
2023/04/26 07:27:37;;;;;;;;;;;;;;;;;;5103654;28;19959;-63
2023/04/26 07:30:04;;;;;;;;;;;;;;;;;;5093521;28;20002;-62
2023/04/26 07:32:30;;;;;;;;;;;;;;;;;;5111370;28;20385;-62
2023/04/26 07:34:56;;;;;;;;;;;;;;;;;;5091162;28;19955;-61
2023/04/26 07:37:21;;;;;;;;;;;;;;;;;;5114001;28;20389;-62
2023/04/26 07:39:47;;;;;;;;;;;;;;;;;;5113430;28;19928;-62
2023/04/26 07:42:13;;;;;;;;;;;;;;;;;;5113166;28;19935;-64
2023/04/26 07:44:39;;;;;;;;;;;;;;;;;;5106629;28;19920;-64
2023/04/26 07:47:05;;;;;;;;;;;;;;;;;;5077320;28;19920;-64
2023/04/26 07:49:31;;;;;;;;;;;;;;;;;;5104851;28;19931;-64
2023/04/26 07:52:00;;;;;;;;;;;;;;;;;;5097065;28;19927;-64
2023/04/26 07:54:26;;;;;;;;;;;;;;;;;;5106226;28;19996;-65
2023/04/26 07:56:53;;;;;;;;;;;;;;;;;;5094883;28;20576;-64
2023/04/26 07:59:19;;;;;;;;;;;;;;;;;;5115478;28;20002;-65
2023/04/26 08:01:45;;;;;;;;;;;;;;;;;;5094864;28;20428;-64
2023/04/26 08:04:11;;;;;;;;;;;;;;;;;;5092247;28;19923;-65
2023/04/26 08:06:38;;;;;;;;;;;;;;;;;;5095164;28;19927;-66
2023/04/26 08:09:04;;;;;;;;;;;;;;;;;;5111214;28;19920;-64
2023/04/26 08:11:30;;;;;;;;;;;;;;;;;;5111487;28;19954;-65
2023/04/26 08:13:56;;;;;;;;;;;;;;;;;;5109242;28;20479;-65
2023/04/26 08:16:21;;;;;;;;;;;;;;;;;;5094468;28;19993;-64
2023/04/26 08:18:47;;;;;;;;;;;;;;;;;;5095590;28;19932;-64
2023/04/26 08:21:13;;;;;;;;;;;;;;;;;;5114334;28;20010;-63
2023/04/26 08:23:39;;;;;;;;;;;;;;;;;;5091501;28;19927;-65
2023/04/26 08:26:06;;;;;;;;;;;;;;;;;;5110758;28;19920;-65
2023/04/26 08:28:32;;;;;;;;;;;;;;;;;;5095777;28;20035;-65
2023/04/26 08:30:57;;;;;;;;;;;;;;;;;;5095343;28;20018;-65
2023/04/26 08:33:23;;;;;;;;;;;;;;;;;;5114387;28;19924;-63
2023/04/26 08:35:49;;;;;;;;;;;;;;;;;;5112214;28;19924;-64
2023/04/26 08:38:15;;;;;;;;;;;;;;;;;;5108975;28;19934;-64
2023/04/26 08:40:41;;;;;;;;;;;;;;;;;;5095973;28;19958;-65
2023/04/26 08:43:07;;;;;;;;;;;;;;;;;;5109047;28;20330;-64
2023/04/26 08:45:33;;;;;;;;;;;;;;;;;;5077850;28;19924;-65
2023/04/26 08:48:00;;;;;;;;;;;;;;;;;;5093138;28;20292;-64
2023/04/26 08:50:26;;;;;;;;;;;;;;;;;;5112513;28;20338;-64
2023/04/26 08:52:52;;;;;;;;;;;;;;;;;;5093733;28;19923;-64
2023/04/26 08:55:18;;;;;;;;;;;;;;;;;;5093501;28;20284;-65
2023/04/26 08:57:44;;;;;;;;;;;;;;;;;;5093306;28;20082;-65
2023/04/26 09:00:14;;;;;;;;;;;;;;;;;;5091875;28;20027;-63
2023/04/26 09:02:41;;;;;;;;;;;;;;;;;;5107984;28;19919;-64
2023/04/26 09:05:08;;;;;;;;;;;;;;;;;;5106339;28;19924;-67
2023/04/26 09:07:33;;;;;;;;;;;;;;;;;;5105865;28;19928;-64
2023/04/26 09:09:59;;;;;;;;;;;;;;;;;;5108989;28;19958;-65
2023/04/26 09:12:26;;;;;;;;;;;;;;;;;;5109891;28;19923;-65
2023/04/26 09:14:52;;;;;;;;;;;;;;;;;;5106611;28;19920;-64
2023/04/26 09:17:17;;;;;;;;;;;;;;;;;;5092035;28;21126;-65
2023/04/26 09:19:43;;;;;;;;;;;;;;;;;;5109458;28;20010;-65
2023/04/26 09:22:10;;;;;;;;;;;;;;;;;;5104777;27;19932;-65
2023/04/26 09:24:35;;;;;;;;;;;;;;;;;;5108132;28;19995;-65
2023/04/26 09:27:04;;;;;;;;;;;;;;;;;;5108304;28;20316;-65
2023/04/26 09:29:30;;;;;;;;;;;;;;;;;;5109889;28;20455;-64
2023/04/26 09:31:57;;;;;;;;;;;;;;;;;;5093617;28;19930;-65
2023/04/26 09:34:23;;;;;;;;;;;;;;;;;;5111298;28;20368;-66
2023/04/26 09:36:49;;;;;;;;;;;;;;;;;;5108604;28;19931;-65
2023/04/26 09:39:15;;;;;;;;;;;;;;;;;;5089184;28;19931;-65
2023/04/26 09:41:41;;;;;;;;;;;;;;;;;;5110495;28;20365;-66
2023/04/26 09:44:06;;;;;;;;;;;;;;;;;;5088603;28;19924;-64
2023/04/26 09:46:32;;;;;;;;;;;;;;;;;;5112854;28;19950;-64
2023/04/26 09:48:58;;;;;;;;;;;;;;;;;;5090111;28;20278;-65
2023/04/26 09:51:25;;;;;;;;;;;;;;;;;;5110066;28;20003;-65
2023/04/26 09:53:51;;;;;;;;;;;;;;;;;;5111432;28;19966;-65
2023/04/26 09:56:17;;;;;;;;;;;;;;;;;;5075505;28;19927;-65
2023/04/26 09:58:43;;;;;;;;;;;;;;;;;;5074416;28;20320;-65
2023/04/26 10:01:10;;;;;;;;;;;;;;;;;;5102937;28;19919;-65
2023/04/26 10:03:36;;;;;;;;;;;;;;;;;;5092131;28;20381;-65
2023/04/26 10:06:02;;;;;;;;;;;;;;;;;;5087603;28;20011;-65
2023/04/26 10:08:28;;;;;;;;;;;;;;;;;;5082272;28;20485;-64
2023/04/26 10:10:54;;;;;;;;;;;;;;;;;;5111465;28;19923;-65
2023/04/26 10:13:20;;;;;;;;;;;;;;;;;;5113222;28;19919;-65
2023/04/26 10:15:46;;;;;;;;;;;;;;;;;;5109413;28;19942;-64
2023/04/26 10:18:12;;;;;;;;;;;;;;;;;;5104206;28;19932;-64
2023/04/26 10:20:37;;;;;;;;;;;;;;;;;;5093222;28;19973;-64
2023/04/26 10:23:03;;;;;;;;;;;;;;;;;;5111566;28;19935;-63
2023/04/26 10:25:30;;;;;;;;;;;;;;;;;;5110392;28;19920;-64
2023/04/26 10:27:55;;;;;;;;;;;;;;;;;;5108947;28;19930;-64
2023/04/26 10:30:22;;;;;;;;;;;;;;;;;;5096949;28;19919;-64
2023/04/26 10:32:47;;;;;;;;;;;;;;;;;;5112547;28;19927;-64
2023/04/26 10:35:16;;;;;;;;;;;;;;;;;;5110767;28;20278;-64
2023/04/26 10:37:42;;;;;;;;;;;;;;;;;;5110092;28;19924;-62
2023/04/26 10:40:07;;;;;;;;;;;;;;;;;;5110099;28;20005;-61
2023/04/26 10:42:33;;;;;;;;;;;;;;;;;;5106512;28;19923;-61
2023/04/26 10:44:59;;;;;;;;;;;;;;;;;;5112221;28;19919;-62
2023/04/26 10:47:25;;;;;;;;;;;;;;;;;;5092381;28;20459;-62
2023/04/26 10:49:52;;;;;;;;;;;;;;;;;;5092472;28;19955;-62
2023/04/26 10:52:19;;;;;;;;;;;;;;;;;;5063282;28;19947;-62
2023/04/26 10:54:45;;;;;;;;;;;;;;;;;;5106430;28;19930;-62
2023/04/26 10:57:11;;;;;;;;;;;;;;;;;;5107149;28;19924;-62
2023/04/26 10:59:37;;;;;;;;;;;;;;;;;;5108285;28;19971;-62
2023/04/26 11:02:03;;;;;;;;;;;;;;;;;;5110835;28;19923;-61
2023/04/26 11:04:28;;;;;;;;;;;;;;;;;;5090305;28;20549;-62
2023/04/26 11:06:56;;;;;;;;;;;;;;;;;;5085377;28;19943;-62
2023/04/26 11:09:22;;;;;;;;;;;;;;;;;;5110441;28;19920;-62
2023/04/26 11:11:48;;;;;;;;;;;;;;;;;;5112264;28;19924;-61
2023/04/26 11:14:14;;;;;;;;;;;;;;;;;;5110213;28;20459;-61
2023/04/26 11:16:40;;;;;;;;;;;;;;;;;;5094251;28;19924;-61
2023/04/26 11:19:06;;;;;;;;;;;;;;;;;;5098102;28;19931;-62
2023/04/26 11:21:32;;;;;;;;;;;;;;;;;;5112721;28;19927;-62
2023/04/26 11:23:58;;;;;;;;;;;;;;;;;;5107030;28;19928;-62
2023/04/26 11:26:24;;;;;;;;;;;;;;;;;;5110613;28;20596;-63
2023/04/26 11:28:50;;;;;;;;;;;;;;;;;;5108538;28;19924;-63
2023/04/26 11:31:16;;;;;;;;;;;;;;;;;;5093615;28;19926;-62
2023/04/26 11:33:41;;;;;;;;;;;;;;;;;;5077147;28;19930;-62
2023/04/26 11:36:07;;;;;;;;;;;;;;;;;;5094237;28;19927;-62
2023/04/26 11:38:33;;;;;;;;;;;;;;;;;;5090171;28;19920;-65
2023/04/26 11:40:59;;;;;;;;;;;;;;;;;;5106899;28;20034;-65
2023/04/26 11:43:25;;;;;;;;;;;;;;;;;;5090557;28;20010;-65
2023/04/26 11:45:51;;;;;;;;;;;;;;;;;;5089522;28;19919;-65
2023/04/26 11:48:17;;;;;;;;;;;;;;;;;;5108343;28;19946;-64
2023/04/26 11:50:43;;;;;;;;;;;;;;;;;;5110024;28;19923;-64
2023/04/26 11:53:09;;;;;;;;;;;;;;;;;;5091979;28;19924;-65
2023/04/26 11:55:35;;;;;;;;;;;;;;;;;;5088808;28;20317;-65
2023/04/26 11:58:02;;;;;;;;;;;;;;;;;;5104384;28;19919;-64
2023/04/26 12:00:28;;;;;;;;;;;;;;;;;;5092798;28;19939;-65
2023/04/26 12:02:55;;;;;;;;;;;;;;;;;;5111216;28;20432;-65
2023/04/26 12:05:21;;;;;;;;;;;;;;;;;;5110014;28;20439;-65
2023/04/26 12:07:47;;;;;;;;;;;;;;;;;;5083141;28;19920;-65
2023/04/26 12:10:13;;;;;;;;;;;;;;;;;;5093770;28;20085;-65
2023/04/26 12:12:40;;;;;;;;;;;;;;;;;;5109516;28;19955;-65
2023/04/26 12:15:05;;;;;;;;;;;;;;;;;;5109296;28;19920;-64
2023/04/26 12:17:31;;;;;;;;;;;;;;;;;;5108290;28;20026;-62
2023/04/26 12:19:57;;;;;;;;;;;;;;;;;;5107085;28;19927;-61
2023/04/26 12:22:23;;;;;;;;;;;;;;;;;;5105254;28;19931;-61
2023/04/26 12:24:49;;;;;;;;;;;;;;;;;;5109281;28;19919;-61
2023/04/26 12:27:15;;;;;;;;;;;;;;;;;;5110170;28;20322;-62
2023/04/26 12:29:41;;;;;;;;;;;;;;;;;;5087181;28;19923;-61
2023/04/26 12:32:07;;;;;;;;;;;;;;;;;;5090942;28;19968;-62
2023/04/26 12:34:33;;;;;;;;;;;;;;;;;;5108591;28;19927;-62
2023/04/26 12:36:59;;;;;;;;;;;;;;;;;;5103069;28;19927;-62
2023/04/26 12:39:25;;;;;;;;;;;;;;;;;;5105220;28;19927;-61
2023/04/26 12:41:51;;;;;;;;;;;;;;;;;;5112383;28;19999;-61
2023/04/26 12:44:17;;;;;;;;;;;;;;;;;;5086652;28;19926;-62
2023/04/26 12:46:43;;;;;;;;;;;;;;;;;;5106109;28;19928;-61
2023/04/26 12:49:09;;;;;;;;;;;;;;;;;;5092906;28;19931;-61
2023/04/26 12:51:34;;;;;;;;;;;;;;;;;;5109125;28;19920;-61
2023/04/26 12:54:00;;;;;;;;;;;;;;;;;;5108723;28;19926;-61
2023/04/26 12:56:26;;;;;;;;;;;;;;;;;;5104502;28;20746;-61
2023/04/26 12:58:54;;;;;;;;;;;;;;;;;;5106422;28;21474;-61
2023/04/26 13:01:20;;;;;;;;;;;;;;;;;;5068531;28;20724;-62
2023/04/26 13:03:46;;;;;;;;;;;;;;;;;;5111456;28;19992;-62
2023/04/26 13:06:12;;;;;;;;;;;;;;;;;;5111287;28;19920;-62
2023/04/26 13:08:38;;;;;;;;;;;;;;;;;;5097877;28;20038;-61
2023/04/26 13:11:03;;;;;;;;;;;;;;;;;;5113960;28;19988;-62
2023/04/26 13:13:29;;;;;;;;;;;;;;;;;;5094874;28;20067;-62
2023/04/26 13:15:55;;;;;;;;;;;;;;;;;;5094622;28;19920;-61
2023/04/26 13:18:21;;;;;;;;;;;;;;;;;;5113709;28;19955;-61
2023/04/26 13:20:47;;;;;;;;;;;;;;;;;;5109109;28;20426;-62
2023/04/26 13:23:13;;;;;;;;;;;;;;;;;;5093847;28;20010;-62
2023/04/26 13:25:39;;;;;;;;;;;;;;;;;;5113348;28;20018;-62
2023/04/26 13:28:05;;;;;;;;;;;;;;;;;;5113474;28;19919;-62
2023/04/26 13:30:31;;;;;;;;;;;;;;;;;;5093211;28;20884;-62
2023/04/26 13:32:57;;;;;;;;;;;;;;;;;;5110997;28;20246;-63
2023/04/26 13:35:23;;;;;;;;;;;;;;;;;;5094319;28;19919;-62
2023/04/26 13:37:49;;;;;;;;;;;;;;;;;;5107249;28;20284;-62
2023/04/26 13:40:15;;;;;;;;;;;;;;;;;;5092331;28;19924;-62
2023/04/26 13:42:41;;;;;;;;;;;;;;;;;;5092642;28;20368;-62
2023/04/26 13:45:10;;;;;;;;;;;;;;;;;;5109847;28;20010;-62
2023/04/26 13:47:36;;;;;;;;;;;;;;;;;;5094078;28;19930;-62
2023/04/26 13:50:02;;;;;;;;;;;;;;;;;;5112546;28;20285;-62
2023/04/26 13:52:28;;;;;;;;;;;;;;;;;;5112097;28;19924;-62
2023/04/26 13:54:54;;;;;;;;;;;;;;;;;;5102705;28;20002;-62
2023/04/26 13:57:20;;;;;;;;;;;;;;;;;;5108593;28;19938;-62
2023/04/26 13:59:46;;;;;;;;;;;;;;;;;;5108059;28;19927;-62
2023/04/26 14:02:12;;;;;;;;;;;;;;;;;;5108172;28;20300;-62
2023/04/26 14:04:38;;;;;;;;;;;;;;;;;;5102556;22;19932;-62
2023/04/26 14:07:04;;;;;;;;;;;;;;;;;;5066746;28;20062;-62
2023/04/26 14:09:30;;;;;;;;;;;;;;;;;;5062341;28;19928;-61
2023/04/26 14:11:56;;;;;;;;;;;;;;;;;;5066991;28;19920;-62
2023/04/26 14:14:22;;;;;;;;;;;;;;;;;;5068514;28;20018;-61
2023/04/26 14:16:48;;;;;;;;;;;;;;;;;;5069489;28;19964;-61
2023/04/26 14:19:14;;;;;;;;;;;;;;;;;;5051818;28;20413;-61
2023/04/26 14:21:40;;;;;;;;;;;;;;;;;;5066243;28;19970;-60
2023/04/26 14:24:06;;;;;;;;;;;;;;;;;;5047955;28;19924;-61
2023/04/26 14:26:32;;;;;;;;;;;;;;;;;;5069189;28;19969;-61
2023/04/26 14:28:58;;;;;;;;;;;;;;;;;;5070796;28;19971;-61
2023/04/26 14:31:25;;;;;;;;;;;;;;;;;;5069253;28;19920;-60
2023/04/26 14:33:51;;;;;;;;;;;;;;;;;;5062286;28;19921;-60
2023/04/26 14:36:16;;;;;;;;;;;;;;;;;;5065276;28;20369;-61
2023/04/26 14:38:42;;;;;;;;;;;;;;;;;;5065621;28;19920;-61
2023/04/26 14:41:08;;;;;;;;;;;;;;;;;;5064667;28;19958;-60
2023/04/26 14:43:34;;;;;;;;;;;;;;;;;;5065054;28;19920;-61
2023/04/26 14:46:02;;;;;;;;;;;;;;;;;;5064282;28;19935;-60
2023/04/26 14:48:28;;;;;;;;;;;;;;;;;;5071834;28;19920;-61
2023/04/26 14:50:53;;;;;;;;;;;;;;;;;;5064803;28;19957;-60
2023/04/26 14:53:19;;;;;;;;;;;;;;;;;;5067791;28;19924;-61
2023/04/26 14:55:45;;;;;;;;;;;;;;;;;;5067605;28;20362;-61
2023/04/26 14:58:11;;;;;;;;;;;;;;;;;;5066511;28;19936;-62
2023/04/26 15:00:38;;;;;;;;;;;;;;;;;;5044124;28;19979;-62
2023/04/26 15:03:04;;;;;;;;;;;;;;;;;;5066625;28;19924;-62
2023/04/26 15:05:30;;;;;;;;;;;;;;;;;;5069313;28;19927;-62
2023/04/26 15:07:56;;;;;;;;;;;;;;;;;;5066740;28;19970;-61
2023/04/26 15:10:21;;;;;;;;;;;;;;;;;;5067685;28;19932;-62
2023/04/26 15:12:47;;;;;;;;;;;;;;;;;;5061346;28;20358;-62
2023/04/26 15:15:14;;;;;;;;;;;;;;;;;;5061622;28;19921;-63
2023/04/26 15:17:40;;;;;;;;;;;;;;;;;;5062890;28;21514;-61
2023/04/26 15:20:06;;;;;;;;;;;;;;;;;;5061025;28;19950;-61
2023/04/26 15:22:32;;;;;;;;;;;;;;;;;;5060775;28;19920;-61
2023/04/26 15:24:57;;;;;;;;;;;;;;;;;;5041399;28;20069;-63
2023/04/26 15:27:24;;;;;;;;;;;;;;;;;;5064196;28;20010;-61
2023/04/26 15:29:50;;;;;;;;;;;;;;;;;;5070752;28;19931;-62
2023/04/26 15:32:15;;;;;;;;;;;;;;;;;;5067280;28;19927;-62
2023/04/26 15:34:44;;;;;;;;;;;;;;;;;;5058760;28;20289;-61
2023/04/26 15:37:09;;;;;;;;;;;;;;;;;;5051910;28;19920;-62
2023/04/26 15:39:36;;;;;;;;;;;;;;;;;;5056992;28;19924;-62
2023/04/26 15:42:03;;;;;;;;;;;;;;;;;;5068188;28;20007;-61
2023/04/26 15:44:29;;;;;;;;;;;;;;;;;;5066016;28;19925;-61
2023/04/26 15:46:55;;;;;;;;;;;;;;;;;;5064524;28;19970;-62
2023/04/26 15:49:21;;;;;;;;;;;;;;;;;;5059137;28;22381;-62
2023/04/26 15:51:47;;;;;;;;;;;;;;;;;;5064327;28;19924;-62
2023/04/26 15:54:12;;;;;;;;;;;;;;;;;;5068990;28;20021;-62
2023/04/26 15:56:38;;;;;;;;;;;;;;;;;;5071946;28;19928;-62
2023/04/26 15:59:04;;;;;;;;;;;;;;;;;;5055334;28;19920;-62
2023/04/26 16:01:30;;;;;;;;;;;;;;;;;;5062500;28;20560;-61
2023/04/26 16:03:56;;;;;;;;;;;;;;;;;;5053015;28;19921;-62
2023/04/26 16:06:22;;;;;;;;;;;;;;;;;;5073272;28;19967;-62
2023/04/26 16:08:48;;;;;;;;;;;;;;;;;;5073313;28;20400;-62
2023/04/26 16:11:14;;;;;;;;;;;;;;;;;;5074688;28;19964;-61
2023/04/26 16:13:40;;;;;;;;;;;;;;;;;;5072880;28;19977;-61
2023/04/26 16:16:07;;;;;;;;;;;;;;;;;;5056174;28;19924;-61
2023/04/26 16:18:33;;;;;;;;;;;;;;;;;;5074666;28;19920;-61
2023/04/26 16:20:59;;;;;;;;;;;;;;;;;;5067825;28;19928;-62
2023/04/26 16:23:25;;;;;;;;;;;;;;;;;;5072659;28;19921;-61
2023/04/26 16:25:51;;;;;;;;;;;;;;;;;;5074747;28;20015;-61
2023/04/26 16:28:17;;;;;;;;;;;;;;;;;;5056586;28;20025;-61
2023/04/26 16:30:43;;;;;;;;;;;;;;;;;;5073249;28;19924;-61
2023/04/26 16:33:09;;;;;;;;;;;;;;;;;;5073016;28;19973;-62
2023/04/26 16:35:35;;;;;;;;;;;;;;;;;;5073054;28;20010;-62
2023/04/26 16:38:01;;;;;;;;;;;;;;;;;;5060478;28;20401;-62